sensor_id;sensor_type;location;lat;lon;timestamp;pressure;altitude;pressure_sealevel;temperature;humidity
9676;BME280;4876;42.656;23.292;2023-03-14T00:00:07;94551.22;;;3.35;60.34
9676;BME280;4876;42.656;23.292;2023-03-14T00:02:35;94546.53;;;3.27;60.47
9676;BME280;4876;42.656;23.292;2023-03-14T00:05:02;94530.94;;;3.21;60.84
9676;BME280;4876;42.656;23.292;2023-03-14T00:07:32;94541.84;;;3.29;60.67
9676;BME280;4876;42.656;23.292;2023-03-14T00:10:01;94543.16;;;3.26;60.91
9676;BME280;4876;42.656;23.292;2023-03-14T00:12:30;94541.34;;;3.27;60.73
9676;BME280;4876;42.656;23.292;2023-03-14T00:14:58;94520.56;;;3.27;61.06
9676;BME280;4876;42.656;23.292;2023-03-14T00:17:28;94525.75;;;3.47;61.08
9676;BME280;4876;42.656;23.292;2023-03-14T00:19:55;94525.25;;;3.50;60.66
9676;BME280;4876;42.656;23.292;2023-03-14T00:22:22;94521.09;;;3.49;60.77
9676;BME280;4876;42.656;23.292;2023-03-14T00:24:51;94511.97;;;3.51;59.98
9676;BME280;4876;42.656;23.292;2023-03-14T00:27:18;94506.50;;;3.58;60.33
9676;BME280;4876;42.656;23.292;2023-03-14T00:29:44;94505.97;;;3.71;59.45
9676;BME280;4876;42.656;23.292;2023-03-14T00:32:12;94499.50;;;3.64;59.76
9676;BME280;4876;42.656;23.292;2023-03-14T00:34:39;94503.13;;;3.58;59.63
9676;BME280;4876;42.656;23.292;2023-03-14T00:37:06;94503.41;;;3.56;59.88
9676;BME280;4876;42.656;23.292;2023-03-14T00:39:33;94494.31;;;3.48;59.90
9676;BME280;4876;42.656;23.292;2023-03-14T00:42:00;94490.41;;;3.56;60.23
9676;BME280;4876;42.656;23.292;2023-03-14T00:44:26;94496.63;;;3.65;59.87
9676;BME280;4876;42.656;23.292;2023-03-14T00:46:53;94491.19;;;3.51;59.68
9676;BME280;4876;42.656;23.292;2023-03-14T00:49:22;94492.50;;;3.23;60.53
9676;BME280;4876;42.656;23.292;2023-03-14T00:51:49;94495.59;;;3.20;60.97
9676;BME280;4876;42.656;23.292;2023-03-14T00:54:16;94489.88;;;3.18;61.38
9676;BME280;4876;42.656;23.292;2023-03-14T00:56:43;94492.97;;;2.95;60.95
9676;BME280;4876;42.656;23.292;2023-03-14T00:59:10;94475.06;;;2.99;61.06
9676;BME280;4876;42.656;23.292;2023-03-14T01:01:38;94485.19;;;3.10;60.87
9676;BME280;4876;42.656;23.292;2023-03-14T01:04:05;94485.19;;;3.10;60.44
9676;BME280;4876;42.656;23.292;2023-03-14T01:06:33;94482.56;;;2.90;61.02
9676;BME280;4876;42.656;23.292;2023-03-14T01:09:00;94477.66;;;2.88;61.44
9676;BME280;4876;42.656;23.292;2023-03-14T01:11:28;94474.78;;;2.90;61.53
9676;BME280;4876;42.656;23.292;2023-03-14T01:13:56;94483.63;;;2.89;61.75
9676;BME280;4876;42.656;23.292;2023-03-14T01:16:25;94470.63;;;2.84;61.73
9676;BME280;4876;42.656;23.292;2023-03-14T01:18:52;94425.69;;;2.63;61.73
9676;BME280;4876;42.656;23.292;2023-03-14T01:21:21;94459.72;;;2.82;61.93
9676;BME280;4876;42.656;23.292;2023-03-14T01:23:50;94458.41;;;2.84;61.67
9676;BME280;4876;42.656;23.292;2023-03-14T01:26:18;94461.78;;;2.90;61.72
9676;BME280;4876;42.656;23.292;2023-03-14T01:28:46;94455.03;;;2.84;61.38
9676;BME280;4876;42.656;23.292;2023-03-14T01:31:13;94457.13;;;2.87;61.13
9676;BME280;4876;42.656;23.292;2023-03-14T01:33:42;94451.94;;;2.92;60.91
9676;BME280;4876;42.656;23.292;2023-03-14T01:36:10;94434.28;;;2.99;61.17
9676;BME280;4876;42.656;23.292;2023-03-14T01:38:38;94449.34;;;2.92;61.68
9676;BME280;4876;42.656;23.292;2023-03-14T01:41:08;94450.38;;;2.91;62.13
9676;BME280;4876;42.656;23.292;2023-03-14T01:43:38;94438.94;;;3.02;62.40
9676;BME280;4876;42.656;23.292;2023-03-14T01:46:24;94446.72;;;2.97;62.35
9676;BME280;4876;42.656;23.292;2023-03-14T01:48:57;94451.94;;;3.02;62.08
9676;BME280;4876;42.656;23.292;2023-03-14T01:51:30;94447.28;;;2.99;61.57
9676;BME280;4876;42.656;23.292;2023-03-14T01:54:05;94437.91;;;2.93;61.61
9676;BME280;4876;42.656;23.292;2023-03-14T01:56:35;94430.63;;;2.85;61.58
9676;BME280;4876;42.656;23.292;2023-03-14T01:59:04;94434.78;;;2.70;62.20
9676;BME280;4876;42.656;23.292;2023-03-14T02:01:34;94433.19;;;2.64;62.13
9676;BME280;4876;42.656;23.292;2023-03-14T02:04:03;94437.88;;;2.57;62.42
9676;BME280;4876;42.656;23.292;2023-03-14T02:06:36;94437.06;;;2.47;63.06
9676;BME280;4876;42.656;23.292;2023-03-14T02:09:05;94431.03;;;2.36;63.30
9676;BME280;4876;42.656;23.292;2023-03-14T02:11:32;94427.91;;;2.29;63.51
9676;BME280;4876;42.656;23.292;2023-03-14T02:14:01;94396.72;;;2.08;63.76
9676;BME280;4876;42.656;23.292;2023-03-14T02:16:28;94415.97;;;2.18;64.35
9676;BME280;4876;42.656;23.292;2023-03-14T02:18:56;94419.63;;;2.32;63.83
9676;BME280;4876;42.656;23.292;2023-03-14T02:21:26;94415.50;;;2.31;63.40
9676;BME280;4876;42.656;23.292;2023-03-14T02:24:06;94415.75;;;2.39;63.58
9676;BME280;4876;42.656;23.292;2023-03-14T02:26:38;94416.28;;;2.41;63.36
9676;BME280;4876;42.656;23.292;2023-03-14T02:29:08;94413.13;;;2.29;63.52
9676;BME280;4876;42.656;23.292;2023-03-14T02:31:35;94420.41;;;2.32;63.44
9676;BME280;4876;42.656;23.292;2023-03-14T02:34:02;94418.63;;;2.38;63.25
9676;BME280;4876;42.656;23.292;2023-03-14T02:36:30;94422.25;;;2.47;62.70
9676;BME280;4876;42.656;23.292;2023-03-14T02:39:06;94428.47;;;2.31;62.73
9676;BME280;4876;42.656;23.292;2023-03-14T02:41:35;94429.16;;;2.16;62.19
9676;BME280;4876;42.656;23.292;2023-03-14T02:44:02;94423.00;;;2.32;62.03
9676;BME280;4876;42.656;23.292;2023-03-14T02:46:30;94428.97;;;2.33;61.68
9676;BME280;4876;42.656;23.292;2023-03-14T02:49:00;94428.47;;;2.31;62.03
9676;BME280;4876;42.656;23.292;2023-03-14T02:51:28;94434.16;;;2.33;61.92
9676;BME280;4876;42.656;23.292;2023-03-14T02:53:56;94428.69;;;2.29;62.08
9676;BME280;4876;42.656;23.292;2023-03-14T02:56:31;94434.16;;;2.33;62.15
9676;BME280;4876;42.656;23.292;2023-03-14T02:58:58;94429.00;;;2.43;62.17
9676;BME280;4876;42.656;23.292;2023-03-14T03:01:25;94432.66;;;2.52;61.99
9676;BME280;4876;42.656;23.292;2023-03-14T03:03:53;94433.72;;;2.56;62.14
9676;BME280;4876;42.656;23.292;2023-03-14T03:06:20;94430.34;;;2.61;62.88
9676;BME280;4876;42.656;23.292;2023-03-14T03:08:47;94437.84;;;2.52;63.36
9676;BME280;4876;42.656;23.292;2023-03-14T03:11:14;94434.44;;;2.47;63.60
9676;BME280;4876;42.656;23.292;2023-03-14T03:13:41;94430.31;;;2.46;63.92
9676;BME280;4876;42.656;23.292;2023-03-14T03:16:08;94430.03;;;2.47;63.58
9676;BME280;4876;42.656;23.292;2023-03-14T03:18:35;94419.38;;;2.33;63.42
9676;BME280;4876;42.656;23.292;2023-03-14T03:21:04;94419.91;;;2.30;63.95
9676;BME280;4876;42.656;23.292;2023-03-14T03:23:34;94427.19;;;2.38;63.69
9676;BME280;4876;42.656;23.292;2023-03-14T03:26:01;94418.09;;;2.46;63.42
9676;BME280;4876;42.656;23.292;2023-03-14T03:28:28;94428.50;;;2.46;63.15
9676;BME280;4876;42.656;23.292;2023-03-14T03:30:55;94394.22;;;2.34;63.38
9676;BME280;4876;42.656;23.292;2023-03-14T03:33:22;94430.34;;;2.61;63.24
9676;BME280;4876;42.656;23.292;2023-03-14T03:35:50;94423.34;;;2.56;63.33
9676;BME280;4876;42.656;23.292;2023-03-14T03:38:19;94423.31;;;2.66;63.17
9676;BME280;4876;42.656;23.292;2023-03-14T03:40:46;94426.97;;;2.70;63.11
9676;BME280;4876;42.656;23.292;2023-03-14T03:43:12;94420.22;;;2.69;63.08
9676;BME280;4876;42.656;23.292;2023-03-14T03:45:39;94425.94;;;2.72;63.13
9676;BME280;4876;42.656;23.292;2023-03-14T03:48:06;94425.94;;;2.72;63.08
9676;BME280;4876;42.656;23.292;2023-03-14T03:50:33;94435.28;;;2.73;62.90
9676;BME280;4876;42.656;23.292;2023-03-14T03:53:00;94444.09;;;2.72;62.83
9676;BME280;4876;42.656;23.292;2023-03-14T03:55:29;94446.47;;;2.68;63.05
9676;BME280;4876;42.656;23.292;2023-03-14T03:57:55;94444.03;;;2.41;63.35
9676;BME280;4876;42.656;23.292;2023-03-14T04:00:22;94439.41;;;2.53;64.03
9676;BME280;4876;42.656;23.292;2023-03-14T04:02:49;94437.03;;;2.31;64.38
9676;BME280;4876;42.656;23.292;2023-03-14T04:05:16;94434.16;;;2.28;64.96
9676;BME280;4876;42.656;23.292;2023-03-14T04:07:43;94437.50;;;2.18;65.49
9676;BME280;4876;42.656;23.292;2023-03-14T04:10:10;94429.16;;;2.06;65.67
9676;BME280;4876;42.656;23.292;2023-03-14T04:12:38;94436.69;;;2.12;65.28
9676;BME280;4876;42.656;23.292;2023-03-14T04:15:06;94432.53;;;2.16;65.65
9676;BME280;4876;42.656;23.292;2023-03-14T04:17:33;94435.72;;;2.24;64.87
9676;BME280;4876;42.656;23.292;2023-03-14T04:20:00;94438.81;;;2.26;64.69
9676;BME280;4876;42.656;23.292;2023-03-14T04:22:27;94420.69;;;2.31;64.49
9676;BME280;4876;42.656;23.292;2023-03-14T04:24:54;94420.69;;;2.31;64.39
9676;BME280;4876;42.656;23.292;2023-03-14T04:27:20;94418.75;;;2.01;65.77
9676;BME280;4876;42.656;23.292;2023-03-14T04:29:49;94407.06;;;1.98;66.22
9676;BME280;4876;42.656;23.292;2023-03-14T04:32:15;94407.88;;;2.09;65.92
9676;BME280;4876;42.656;23.292;2023-03-14T04:34:42;94405.34;;;2.19;65.82
9676;BME280;4876;42.656;23.292;2023-03-14T04:37:09;94408.41;;;2.16;65.45
9676;BME280;4876;42.656;23.292;2023-03-14T04:39:36;94397.56;;;2.19;65.35
9676;BME280;4876;42.656;23.292;2023-03-14T04:42:03;94393.16;;;2.30;65.14
9676;BME280;4876;42.656;23.292;2023-03-14T04:44:29;94391.59;;;2.19;65.47
9676;BME280;4876;42.656;23.292;2023-03-14T04:46:58;94392.63;;;2.23;65.61
9676;BME280;4876;42.656;23.292;2023-03-14T04:49:24;94393.47;;;2.49;65.23
9676;BME280;4876;42.656;23.292;2023-03-14T04:51:51;94381.28;;;2.69;64.41
9676;BME280;4876;42.656;23.292;2023-03-14T04:54:18;94388.03;;;3.01;63.68
9676;BME280;4876;42.656;23.292;2023-03-14T04:56:45;94389.25;;;3.60;63.00
9676;BME280;4876;42.656;23.292;2023-03-14T04:59:12;94383.84;;;4.16;60.84
9676;BME280;4876;42.656;23.292;2023-03-14T05:01:38;94386.78;;;4.53;58.63
9676;BME280;4876;42.656;23.292;2023-03-14T05:04:07;94390.22;;;4.83;57.91
9676;BME280;4876;42.656;23.292;2023-03-14T05:06:34;94383.69;;;4.85;57.49
9676;BME280;4876;42.656;23.292;2023-03-14T05:09:01;94380.34;;;4.80;57.26
9676;BME280;4876;42.656;23.292;2023-03-14T05:11:30;94387.56;;;4.88;56.26
9676;BME280;4876;42.656;23.292;2023-03-14T05:13:57;94385.56;;;5.09;56.71
9676;BME280;4876;42.656;23.292;2023-03-14T05:16:24;94385.88;;;5.65;55.02
9676;BME280;4876;42.656;23.292;2023-03-14T05:18:51;94376.19;;;6.14;53.70
9676;BME280;4876;42.656;23.292;2023-03-14T05:21:19;94389.38;;;6.65;52.94
9676;BME280;4876;42.656;23.292;2023-03-14T05:23:46;94381.63;;;6.93;52.29
9676;BME280;4876;42.656;23.292;2023-03-14T05:26:13;94393.38;;;7.28;51.50
9676;BME280;4876;42.656;23.292;2023-03-14T05:28:42;94380.69;;;7.35;51.49
9676;BME280;4876;42.656;23.292;2023-03-14T05:31:09;94369.38;;;6.56;52.91
9676;BME280;4876;42.656;23.292;2023-03-14T05:33:36;94381.59;;;6.79;52.02
9676;BME280;4876;42.656;23.292;2023-03-14T05:36:03;94384.91;;;6.66;52.75
9676;BME280;4876;42.656;23.292;2023-03-14T05:38:32;94379.94;;;6.64;52.36
9676;BME280;4876;42.656;23.292;2023-03-14T05:40:58;94370.00;;;6.47;52.04
9676;BME280;4876;42.656;23.292;2023-03-14T05:43:25;94377.09;;;5.80;54.08
9676;BME280;4876;42.656;23.292;2023-03-14T05:45:52;94379.31;;;5.68;54.68
9676;BME280;4876;42.656;23.292;2023-03-14T05:48:18;94386.19;;;4.67;57.37
9676;BME280;4876;42.656;23.292;2023-03-14T05:50:47;94383.38;;;5.21;56.26
9676;BME280;4876;42.656;23.292;2023-03-14T05:53:14;94374.00;;;5.49;54.80
9676;BME280;4876;42.656;23.292;2023-03-14T05:55:42;94376.84;;;4.95;56.82
9676;BME280;4876;42.656;23.292;2023-03-14T05:58:08;94383.34;;;5.26;55.11
9676;BME280;4876;42.656;23.292;2023-03-14T06:00:35;94379.28;;;4.81;56.01
9676;BME280;4876;42.656;23.292;2023-03-14T06:03:02;94377.09;;;4.98;55.96
9676;BME280;4876;42.656;23.292;2023-03-14T06:05:29;94376.56;;;4.96;56.28
9676;BME280;4876;42.656;23.292;2023-03-14T06:07:56;94379.47;;;4.55;57.64
9676;BME280;4876;42.656;23.292;2023-03-14T06:10:22;94374.28;;;4.50;57.57
9676;BME280;4876;42.656;23.292;2023-03-14T06:12:51;94371.94;;;4.54;58.16
9676;BME280;4876;42.656;23.292;2023-03-14T06:15:17;94376.41;;;4.43;57.57
9676;BME280;4876;42.656;23.292;2023-03-14T06:17:44;94373.56;;;4.40;57.88
9676;BME280;4876;42.656;23.292;2023-03-14T06:20:11;94370.81;;;4.16;59.60
9676;BME280;4876;42.656;23.292;2023-03-14T06:22:39;94379.50;;;3.96;59.49
9676;BME280;4876;42.656;23.292;2023-03-14T06:25:06;94379.03;;;3.84;60.33
9676;BME280;4876;42.656;23.292;2023-03-14T06:27:33;94379.09;;;3.73;60.31
9676;BME280;4876;42.656;23.292;2023-03-14T06:30:02;94389.44;;;3.89;60.00
9676;BME280;4876;42.656;23.292;2023-03-14T06:32:28;94401.94;;;3.82;60.60
9676;BME280;4876;42.656;23.292;2023-03-14T06:34:55;94390.69;;;3.96;60.48
9676;BME280;4876;42.656;23.292;2023-03-14T06:37:26;94388.69;;;3.78;60.44
9676;BME280;4876;42.656;23.292;2023-03-14T06:39:53;94386.81;;;3.94;59.88
9676;BME280;4876;42.656;23.292;2023-03-14T06:42:19;94378.69;;;4.11;58.53
9676;BME280;4876;42.656;23.292;2023-03-14T06:44:46;94381.63;;;3.84;60.15
9676;BME280;4876;42.656;23.292;2023-03-14T06:47:14;94366.28;;;3.87;59.99
9676;BME280;4876;42.656;23.292;2023-03-14T06:49:41;94364.38;;;4.03;58.25
9676;BME280;4876;42.656;23.292;2023-03-14T06:52:08;94351.38;;;4.03;57.73
9676;BME280;4876;42.656;23.292;2023-03-14T06:54:35;94358.00;;;3.75;58.66
9676;BME280;4876;42.656;23.292;2023-03-14T06:57:01;94358.81;;;3.70;59.35
9676;BME280;4876;42.656;23.292;2023-03-14T06:59:28;94353.41;;;4.16;57.53
9676;BME280;4876;42.656;23.292;2023-03-14T07:01:55;94342.31;;;4.40;57.31
9676;BME280;4876;42.656;23.292;2023-03-14T07:04:23;94344.38;;;4.48;56.69
9676;BME280;4876;42.656;23.292;2023-03-14T07:06:50;94345.38;;;4.52;56.42
9676;BME280;4876;42.656;23.292;2023-03-14T07:09:16;94341.16;;;4.61;57.12
9676;BME280;4876;42.656;23.292;2023-03-14T07:11:44;94336.34;;;4.78;56.20
9676;BME280;4876;42.656;23.292;2023-03-14T07:14:10;94332.44;;;4.76;56.62
9676;BME280;4876;42.656;23.292;2023-03-14T07:16:37;94336.41;;;4.68;57.13
9676;BME280;4876;42.656;23.292;2023-03-14T07:19:04;94339.44;;;4.80;55.48
9676;BME280;4876;42.656;23.292;2023-03-14T07:21:32;94344.56;;;4.91;55.87
9676;BME280;4876;42.656;23.292;2023-03-14T07:24:00;94345.03;;;4.98;56.24
9676;BME280;4876;42.656;23.292;2023-03-14T07:26:26;94341.09;;;5.00;56.50
9676;BME280;4876;42.656;23.292;2023-03-14T07:28:53;94335.16;;;4.95;54.66
9676;BME280;4876;42.656;23.292;2023-03-14T07:31:20;94341.78;;;5.11;55.43
9676;BME280;4876;42.656;23.292;2023-03-14T07:33:47;94339.75;;;5.32;54.75
9676;BME280;4876;42.656;23.292;2023-03-14T07:36:14;94328.31;;;5.04;55.62
9676;BME280;4876;42.656;23.292;2023-03-14T07:38:42;94328.88;;;5.25;54.96
9676;BME280;4876;42.656;23.292;2023-03-14T07:41:09;94330.22;;;5.22;55.21
9676;BME280;4876;42.656;23.292;2023-03-14T07:43:36;94318.91;;;5.32;55.32
9676;BME280;4876;42.656;23.292;2023-03-14T07:46:03;94316.75;;;5.63;53.59
9676;BME280;4876;42.656;23.292;2023-03-14T07:48:30;94318.19;;;5.74;53.28
9676;BME280;4876;42.656;23.292;2023-03-14T07:50:57;94314.34;;;5.90;53.16
9676;BME280;4876;42.656;23.292;2023-03-14T07:53:24;94311.34;;;5.78;54.10
9676;BME280;4876;42.656;23.292;2023-03-14T07:55:53;94317.56;;;6.06;53.56
9676;BME280;4876;42.656;23.292;2023-03-14T07:58:21;94314.47;;;6.23;51.98
9676;BME280;4876;42.656;23.292;2023-03-14T08:00:48;94315.78;;;6.39;52.39
9676;BME280;4876;42.656;23.292;2023-03-14T08:03:15;94313.63;;;6.28;51.50
9676;BME280;4876;42.656;23.292;2023-03-14T08:05:43;94314.44;;;6.61;50.66
9676;BME280;4876;42.656;23.292;2023-03-14T08:08:10;94309.22;;;6.61;50.56
9676;BME280;4876;42.656;23.292;2023-03-14T08:10:37;94311.16;;;6.69;50.14
9676;BME280;4876;42.656;23.292;2023-03-14T08:13:05;94309.47;;;6.78;49.58
9676;BME280;4876;42.656;23.292;2023-03-14T08:15:32;94309.25;;;6.74;49.92
9676;BME280;4876;42.656;23.292;2023-03-14T08:17:59;94300.03;;;6.63;49.93
9676;BME280;4876;42.656;23.292;2023-03-14T08:20:27;94315.22;;;6.94;49.68
9676;BME280;4876;42.656;23.292;2023-03-14T08:22:55;94305.09;;;7.20;49.14
9676;BME280;4876;42.656;23.292;2023-03-14T08:25:23;94312.38;;;7.23;48.62
9676;BME280;4876;42.656;23.292;2023-03-14T08:27:50;94298.63;;;7.31;48.81
9676;BME280;4876;42.656;23.292;2023-03-14T08:30:20;94313.38;;;7.54;48.61
9676;BME280;4876;42.656;23.292;2023-03-14T08:32:47;94308.22;;;7.49;47.88
9676;BME280;4876;42.656;23.292;2023-03-14T08:35:14;94303.88;;;7.59;48.16
9676;BME280;4876;42.656;23.292;2023-03-14T08:37:41;94300.38;;;7.77;48.23
9676;BME280;4876;42.656;23.292;2023-03-14T08:40:10;94306.00;;;7.56;48.39
9676;BME280;4876;42.656;23.292;2023-03-14T08:42:38;94297.66;;;7.82;46.96
9676;BME280;4876;42.656;23.292;2023-03-14T08:45:06;94283.59;;;7.92;46.49
9676;BME280;4876;42.656;23.292;2023-03-14T08:47:35;94277.00;;;7.80;46.83
9676;BME280;4876;42.656;23.292;2023-03-14T08:50:03;94277.25;;;8.06;47.30
9676;BME280;4876;42.656;23.292;2023-03-14T08:52:30;94273.78;;;7.97;48.01
9676;BME280;4876;42.656;23.292;2023-03-14T08:54:57;94265.59;;;8.49;46.71
9676;BME280;4876;42.656;23.292;2023-03-14T08:57:24;94268.75;;;8.37;46.51
9676;BME280;4876;42.656;23.292;2023-03-14T08:59:53;94262.28;;;8.21;46.48
9676;BME280;4876;42.656;23.292;2023-03-14T09:02:20;94259.34;;;8.36;47.25
9676;BME280;4876;42.656;23.292;2023-03-14T09:04:49;94230.09;;;8.43;45.55
9676;BME280;4876;42.656;23.292;2023-03-14T09:07:16;94245.31;;;8.85;45.49
9676;BME280;4876;42.656;23.292;2023-03-14T09:09:43;94243.91;;;9.10;45.49
9676;BME280;4876;42.656;23.292;2023-03-14T09:12:10;94236.28;;;9.00;43.79
9676;BME280;4876;42.656;23.292;2023-03-14T09:14:36;94232.03;;;8.82;43.48
9676;BME280;4876;42.656;23.292;2023-03-14T09:17:05;94228.03;;;8.76;43.96
9676;BME280;4876;42.656;23.292;2023-03-14T09:19:31;94224.59;;;9.06;43.08
9676;BME280;4876;42.656;23.292;2023-03-14T09:22:01;94215.00;;;9.33;43.18
9676;BME280;4876;42.656;23.292;2023-03-14T09:24:28;94207.31;;;9.54;43.62
9676;BME280;4876;42.656;23.292;2023-03-14T09:26:55;94218.50;;;9.20;44.10
9676;BME280;4876;42.656;23.292;2023-03-14T09:29:22;94199.84;;;9.30;44.19
9676;BME280;4876;42.656;23.292;2023-03-14T09:31:51;94197.84;;;9.27;43.76
9676;BME280;4876;42.656;23.292;2023-03-14T09:34:18;94201.25;;;9.36;43.47
9676;BME280;4876;42.656;23.292;2023-03-14T09:36:45;94195.03;;;9.23;42.81
9676;BME280;4876;42.656;23.292;2023-03-14T09:39:13;94194.47;;;9.35;42.14
9676;BME280;4876;42.656;23.292;2023-03-14T09:41:43;94184.47;;;9.46;42.88
9676;BME280;4876;42.656;23.292;2023-03-14T09:44:13;94177.03;;;9.56;42.54
9676;BME280;4876;42.656;23.292;2023-03-14T09:46:43;94181.38;;;9.61;43.10
9676;BME280;4876;42.656;23.292;2023-03-14T09:49:17;94170.88;;;9.52;43.05
9676;BME280;4876;42.656;23.292;2023-03-14T09:51:47;94163.19;;;9.64;42.70
9676;BME280;4876;42.656;23.292;2023-03-14T09:54:29;94156.84;;;9.65;42.61
9676;BME280;4876;42.656;23.292;2023-03-14T09:56:56;94157.16;;;9.90;42.25
9676;BME280;4876;42.656;23.292;2023-03-14T09:59:23;94154.38;;;9.95;41.83
9676;BME280;4876;42.656;23.292;2023-03-14T10:01:52;94134.00;;;9.83;41.79
9676;BME280;4876;42.656;23.292;2023-03-14T10:04:22;94153.91;;;10.10;41.88
9676;BME280;4876;42.656;23.292;2023-03-14T10:06:49;94141.25;;;10.04;41.52
9676;BME280;4876;42.656;23.292;2023-03-14T10:09:20;94142.47;;;9.71;42.17
9676;BME280;4876;42.656;23.292;2023-03-14T10:11:52;94139.53;;;10.16;41.53
9676;BME280;4876;42.656;23.292;2023-03-14T10:14:29;94139.03;;;10.49;42.11
9676;BME280;4876;42.656;23.292;2023-03-14T10:17:05;94121.22;;;10.63;41.68
9676;BME280;4876;42.656;23.292;2023-03-14T10:19:33;94121.06;;;10.60;41.19
9676;BME280;4876;42.656;23.292;2023-03-14T10:22:02;94119.97;;;10.69;41.85
9676;BME280;4876;42.656;23.292;2023-03-14T10:24:32;94107.25;;;10.71;41.20
9676;BME280;4876;42.656;23.292;2023-03-14T10:27:02;94103.97;;;10.83;41.17
9676;BME280;4876;42.656;23.292;2023-03-14T10:29:30;94103.63;;;10.93;41.13
9676;BME280;4876;42.656;23.292;2023-03-14T10:32:02;94083.13;;;11.08;41.22
9676;BME280;4876;42.656;23.292;2023-03-14T10:34:31;94089.56;;;11.19;40.70
9676;BME280;4876;42.656;23.292;2023-03-14T10:37:03;94078.97;;;11.27;40.25
9676;BME280;4876;42.656;23.292;2023-03-14T10:39:41;94077.75;;;11.25;40.59
9676;BME280;4876;42.656;23.292;2023-03-14T10:42:16;94059.41;;;11.37;40.28
9676;BME280;4876;42.656;23.292;2023-03-14T10:44:45;94053.72;;;11.47;40.16
9676;BME280;4876;42.656;23.292;2023-03-14T10:47:18;94049.34;;;11.72;40.85
9676;BME280;4876;42.656;23.292;2023-03-14T10:49:45;94041.78;;;11.71;41.25
9676;BME280;4876;42.656;23.292;2023-03-14T10:52:15;94035.66;;;11.79;40.70
9676;BME280;4876;42.656;23.292;2023-03-14T10:54:49;94024.91;;;12.05;40.51
9676;BME280;4876;42.656;23.292;2023-03-14T10:57:20;94015.91;;;12.06;40.26
9676;BME280;4876;42.656;23.292;2023-03-14T10:59:47;94012.25;;;11.98;40.39
9676;BME280;4876;42.656;23.292;2023-03-14T11:02:27;94022.28;;;12.05;40.47
9676;BME280;4876;42.656;23.292;2023-03-14T11:05:04;94009.19;;;12.08;40.19
9676;BME280;4876;42.656;23.292;2023-03-14T11:07:39;94001.84;;;12.14;41.11
9676;BME280;4876;42.656;23.292;2023-03-14T11:10:14;93994.84;;;12.18;40.02
9676;BME280;4876;42.656;23.292;2023-03-14T11:12:51;93990.13;;;12.24;41.18
9676;BME280;4876;42.656;23.292;2023-03-14T11:15:24;93988.72;;;12.38;40.56
9676;BME280;4876;42.656;23.292;2023-03-14T11:18:05;93974.84;;;12.42;40.76
9676;BME280;4876;42.656;23.292;2023-03-14T11:20:42;93958.59;;;12.52;40.50
9676;BME280;4876;42.656;23.292;2023-03-14T11:23:15;93961.78;;;12.33;40.24
9676;BME280;4876;42.656;23.292;2023-03-14T11:25:52;93948.25;;;12.34;40.43
9676;BME280;4876;42.656;23.292;2023-03-14T11:28:27;93948.72;;;12.49;40.36
9676;BME280;4876;42.656;23.292;2023-03-14T11:31:02;93945.53;;;12.68;41.63
9676;BME280;4876;42.656;23.292;2023-03-14T11:33:37;93930.56;;;12.59;40.06
9676;BME280;4876;42.656;23.292;2023-03-14T11:36:07;93911.78;;;12.49;39.89
9676;BME280;4876;42.656;23.292;2023-03-14T11:38:38;93927.34;;;12.66;40.78
9676;BME280;4876;42.656;23.292;2023-03-14T11:41:14;93926.34;;;12.83;40.82
9676;BME280;4876;42.656;23.292;2023-03-14T11:43:46;93920.94;;;12.91;41.07
9676;BME280;4876;42.656;23.292;2023-03-14T11:46:17;93916.78;;;13.18;40.18
9676;BME280;4876;42.656;23.292;2023-03-14T11:48:56;93909.53;;;13.28;39.92
9676;BME280;4876;42.656;23.292;2023-03-14T11:51:28;93904.16;;;13.24;39.69
9676;BME280;4876;42.656;23.292;2023-03-14T11:53:59;93905.25;;;13.23;39.05
9676;BME280;4876;42.656;23.292;2023-03-14T11:56:33;93903.38;;;13.24;39.19
9676;BME280;4876;42.656;23.292;2023-03-14T11:59:04;93895.06;;;13.37;39.94
9676;BME280;4876;42.656;23.292;2023-03-14T12:01:40;93886.63;;;13.32;39.84
9676;BME280;4876;42.656;23.292;2023-03-14T12:04:15;93888.19;;;13.49;38.81
9676;BME280;4876;42.656;23.292;2023-03-14T12:06:47;93862.44;;;13.45;38.83
9676;BME280;4876;42.656;23.292;2023-03-14T12:09:15;93871.63;;;13.80;38.99
9676;BME280;4876;42.656;23.292;2023-03-14T12:11:47;93867.34;;;13.75;37.93
9676;BME280;4876;42.656;23.292;2023-03-14T12:14:22;93835.19;;;13.57;38.27
9676;BME280;4876;42.656;23.292;2023-03-14T12:16:53;93850.63;;;13.87;37.91
9676;BME280;4876;42.656;23.292;2023-03-14T12:19:37;93833.50;;;13.65;38.11
9676;BME280;4876;42.656;23.292;2023-03-14T12:22:26;93848.16;;;13.78;37.87
9676;BME280;4876;42.656;23.292;2023-03-14T12:24:59;93837.94;;;13.92;37.03
9676;BME280;4876;42.656;23.292;2023-03-14T12:27:46;93827.88;;;13.98;37.39
9676;BME280;4876;42.656;23.292;2023-03-14T12:30:29;93825.44;;;14.09;37.64
9676;BME280;4876;42.656;23.292;2023-03-14T12:36:02;93809.50;;;14.40;37.25
9676;BME280;4876;42.656;23.292;2023-03-14T12:38:42;93814.13;;;14.43;37.26
9676;BME280;4876;42.656;23.292;2023-03-14T12:41:14;93802.06;;;14.46;37.90
9676;BME280;4876;42.656;23.292;2023-03-14T12:43:43;93810.19;;;14.53;36.65
9676;BME280;4876;42.656;23.292;2023-03-14T12:46:21;93806.09;;;14.40;36.86
9676;BME280;4876;42.656;23.292;2023-03-14T12:48:49;93800.22;;;14.46;36.06
9676;BME280;4876;42.656;23.292;2023-03-14T12:51:19;93783.53;;;14.26;36.49
9676;BME280;4876;42.656;23.292;2023-03-14T12:54:05;93759.50;;;14.16;36.55
9676;BME280;4876;42.656;23.292;2023-03-14T12:56:48;93781.59;;;14.43;36.13
9676;BME280;4876;42.656;23.292;2023-03-14T12:59:33;93776.72;;;14.61;35.62
9676;BME280;4876;42.656;23.292;2023-03-14T13:02:13;93777.53;;;14.65;35.89
9676;BME280;4876;42.656;23.292;2023-03-14T13:04:44;93758.09;;;14.76;36.11
9676;BME280;4876;42.656;23.292;2023-03-14T13:07:13;93764.22;;;14.80;35.15
9676;BME280;4876;42.656;23.292;2023-03-14T13:09:55;93762.75;;;14.83;35.30
9676;BME280;4876;42.656;23.292;2023-03-14T13:12:29;93759.53;;;14.93;35.30
9676;BME280;4876;42.656;23.292;2023-03-14T13:14:59;93757.19;;;14.88;35.02
9676;BME280;4876;42.656;23.292;2023-03-14T13:17:33;93750.75;;;14.89;35.13
9676;BME280;4876;42.656;23.292;2023-03-14T13:20:03;93735.31;;;14.91;35.30
9676;BME280;4876;42.656;23.292;2023-03-14T13:22:36;93735.72;;;14.93;35.17
9676;BME280;4876;42.656;23.292;2023-03-14T13:25:06;93727.50;;;14.98;35.20
9676;BME280;4876;42.656;23.292;2023-03-14T13:27:34;93734.03;;;15.04;35.16
9676;BME280;4876;42.656;23.292;2023-03-14T13:30:15;93727.22;;;14.84;34.63
9676;BME280;4876;42.656;23.292;2023-03-14T13:32:43;93712.81;;;14.81;34.79